首页
METAR-TAF:

METAR-TAF

机场 :

Yellowstone Airport

West Yellowstone, 蒙大拿州, 美国

纬度: 44-39N, 经度: 111-06W, 海拔: 2031米

当前天气观测

该预报发布于23分钟前的23:35 UTC
风速16节,风向西南
温度 25°C
湿度 32%
气压 1023 hPa
能見度: 16.1公里
天空无云

METAR: KWYS 152335Z AUTO 22016KT 10SM CLR 25/07 A3020 RMK AO2

时间: 17:58 (23:58 UTC)

预报

该预报发布于2小时和48分钟前的21:10 UTC
预报有效从15日的 21点(UTC)到 16日的 18点(UTC)
风速11节,风向
能見度: 10公里
多云层高于9000英尺
从 16日的 0200点(UTC)
风速5节,风向多变
能見度: 10公里
散云层高于25000英尺

TAF: KWYS 152110Z 1521/1618 19011KT P6SM BKN090 FM160200 VRB05KT P6SM SCT250

超过4000个机场的气象观测和天气预报(METAR&TAF报告)。

可查询的气象台以黄色和红色小点在地图上表示。

将鼠标移到小点上方,可查看气象台名称。

然后点击查看天气观测和预报。

如需切换地图:点击带黑十字的绿色按钮放大地图;点击带横线的绿色按钮缩小地图;或者点击绿色箭头查看邻近地区的地图。


METAR-TAF: